Dauntless Aviation
Airports Europe Slovenia
LJMB
MBX

Maribor Airport

Maribor, SLOVENIA

Airport Info
Suggest Updated Information for this Airport

Location

Latitude / Longitude: 46°28'47"N / 15°41'9"E
  46°28.794'N / 15°41.166'E
  46.4799 / 15.6861

Nearby radio navigation aids

MR MARIBOR NDB. 323.6° 7.9nm from MR to field.

Runway Information

Runway 15 /33

Dimensions: 8202 x 148 ft.
Surface: ASP
 
Runway 15
Runway 33
Latitude: 46.48915 46.470569
Longitude: 15.677094 15.695161
Elevation: 876 ft. 876 ft.
Runway true heading: 146.2 326.2
 

Instrument Procedures

  Aerodrome Chart
  Aircraft Parking/Docking Chart

STARs (Standard Terminal Arrivals)

  STAR-Instrument (STAR) Rwy 32)
  STAR-Instrument (STAR) Rwy 32)

IAPs (Instrument Approach Procedures)

  ILS Rwy 32
  L Rwy 32
  Visual Approach Chart - Circling
  Visual Approach Chart
  Aerodrome Obstacle Chart - Type A
  Aerodrome Obstacle Chart - Type B
  Aerodrome Obstacle Chart - Type A (Rwy 14/32)
  Aerodrome Obstacle Chart - Type B
  Aerodrome Information (Textual)

Departure Procedures

  SID-Instrument (SID) Rwy 14)
  SID-Instrument (SID) Rwy 32)
  SID-Instrument (SID) Rwy 32)
  SID-Instrument (SID) Rwy 32)
  SID-Instrument (SID) Rwy 32)
Satellite photo at:
Airport distance calculator
From:
Weather Reports

METAR

LJMB

LJMB 181630Z VRB02KT CAVOK 30/15 Q1010
LOWG
33.1nm NW
LOWG 181650Z VRB02KT CAVOK 23/16 Q1010 NOSIG
LJCE
35.5nm S
LJCE 181630Z 26003KT CAVOK 31/15 Q1010 RMK BLU

TAF

LJMB
TAF LJMB 181100Z 1812/1912 20008KT CAVOK PROB30 TEMPO 1818/1912 20015G25KT 5000 TSRA BKN040CB BECMG 1907/1909 20015G25KT
LOWG
33.1nm NW
TAF AMD LOWG 181444Z 1814/1912 15007KT CAVOK TX34/1912Z TN19/1903Z TEMPO 1814/1818 FEW050CB TEMPO 1814/1816 34008KT TEMPO 1904/1912 FEW050CB PROB30 TEMPO 1910/1912 -TSRA
LJCE
35.5nm S
TAF LJCE 181400Z 1815/1900 25008KT CAVOK PROB30 TEMPO 1816/1900 -SHRA BKN055CB
Safelog

 

Dauntless Aviation

© 2007-2022 Dauntless Aviation, all rights reserved
Information provided via PilotNav comes from a variety of official and unofficial data sources. As errors are possible, do not use PilotNav for primary flight planning purposes. Verify any information that you receive via PilotNav with current and canonical charts and other official documents. The material in this database is subject to database copyrights held by Dauntless Aviation and may not be copied without the express permission of Dauntless Aviation - licenses for use of part of all of this data are available for purchase; enquire via the Dauntless Aviation helpdesk. A number of mechanisms and markers exist in the database to protect against and identify infringement / copyright. Automated queries against this website are strictly prohibited, and all activity is logged and analyzed.